createdAt,value
2019-01-21T00:01:50.229Z,27.17
2019-01-21T00:04:16.601Z,25.37
2019-01-21T00:06:43.257Z,29.87
2019-01-21T00:09:09.901Z,27.73
2019-01-21T00:11:42.561Z,28.23
2019-01-21T00:14:09.281Z,28.33
2019-01-21T00:16:35.694Z,29.40
2019-01-21T00:19:02.046Z,28.17
2019-01-21T00:21:34.350Z,28.07
2019-01-21T00:24:00.776Z,28.60
2019-01-21T00:26:27.003Z,24.80
2019-01-21T00:28:53.335Z,26.67
2019-01-21T00:31:22.656Z,28.63
2019-01-21T00:33:48.942Z,28.43
2019-01-21T00:36:15.602Z,29.20
2019-01-21T00:38:46.364Z,30.23
2019-01-21T00:41:12.771Z,28.00
2019-01-21T00:43:39.160Z,27.40
2019-01-21T00:46:05.681Z,29.17
2019-01-21T00:48:32.057Z,29.43
2019-01-21T00:50:58.310Z,29.43
2019-01-21T00:53:24.717Z,27.40
2019-01-21T00:55:51.044Z,28.93
2019-01-21T00:58:17.529Z,28.97
2019-01-21T01:00:43.926Z,30.50
2019-01-21T01:03:10.160Z,30.33
2019-01-21T01:05:36.549Z,32.50
2019-01-21T01:08:03.182Z,35.00
2019-01-21T01:10:29.686Z,33.53
2019-01-21T01:13:02.444Z,30.20
2019-01-21T01:15:35.438Z,31.17
2019-01-21T01:18:01.914Z,28.03
2019-01-21T01:20:47.791Z,31.43
2019-01-21T01:23:19.285Z,30.60
2019-01-21T01:25:44.164Z,31.97
2019-01-21T01:28:32.340Z,31.30
2019-01-21T01:30:59.122Z,27.33
2019-01-21T01:34:00.665Z,29.40
2019-01-21T01:36:27.148Z,29.50
2019-01-21T01:39:20.259Z,28.47
2019-01-21T01:41:46.803Z,26.63
2019-01-21T01:44:21.157Z,33.13
2019-01-21T01:46:50.722Z,27.13
2019-01-21T01:49:22.114Z,31.27
2019-01-21T01:51:48.599Z,24.47
2019-01-21T01:54:23.615Z,29.63
2019-01-21T01:57:01.377Z,28.20
2019-01-21T01:59:37.347Z,31.70
2019-01-21T02:02:04.150Z,26.77
2019-01-21T02:04:30.581Z,28.83
2019-01-21T02:07:45.495Z,28.53
2019-01-21T02:10:24.500Z,31.70
2019-01-21T02:12:51.130Z,29.87
2019-01-21T02:15:22.716Z,26.37
2019-01-21T02:17:58.319Z,25.17
2019-01-21T02:20:29.148Z,27.03
2019-01-21T02:23:42.995Z,26.10
2019-01-21T02:26:18.627Z,28.50
2019-01-21T02:29:09.982Z,28.57
2019-01-21T02:32:15.161Z,25.87
2019-01-21T02:34:46.154Z,31.60
2019-01-21T02:38:06.840Z,26.67
2019-01-21T02:40:47.650Z,26.13
2019-01-21T02:43:33.545Z,26.70
2019-01-21T02:46:38.927Z,26.63
2019-01-21T02:49:04.236Z,28.57
2019-01-21T02:51:52.993Z,24.00
2019-01-21T02:54:37.957Z,25.87
2019-01-21T02:57:22.180Z,25.70
2019-01-21T03:00:08.805Z,24.20
2019-01-21T03:02:56.026Z,24.33
2019-01-21T03:06:09.942Z,27.77
2019-01-21T03:09:11.153Z,25.00
2019-01-21T03:11:54.420Z,23.87
2019-01-21T03:15:33.113Z,23.73
2019-01-21T03:17:22.025Z,26.37
2019-01-21T03:20:07.913Z,26.93
2019-01-21T03:22:48.168Z,25.53
2019-01-21T03:25:44.089Z,26.03
2019-01-21T03:28:46.375Z,26.87
2019-01-21T03:31:27.732Z,26.80
2019-01-21T03:34:06.706Z,25.57
2019-01-21T03:36:38.904Z,25.47
2019-01-21T03:39:25.009Z,24.87
2019-01-21T03:42:04.353Z,27.10
2019-01-21T03:44:39.156Z,25.27
2019-01-21T03:47:32.385Z,27.43
2019-01-21T03:50:21.178Z,25.17
2019-01-21T03:53:05.901Z,26.47
2019-01-21T03:55:32.393Z,28.03
2019-01-21T03:58:21.633Z,33.03
2019-01-21T04:01:31.168Z,26.80
2019-01-21T04:04:11.371Z,32.30
2019-01-21T04:07:03.674Z,27.87
2019-01-21T04:10:01.355Z,28.77
2019-01-21T04:12:47.712Z,30.30
2019-01-21T04:15:40.074Z,34.00
2019-01-21T04:18:14.005Z,35.93
2019-01-21T04:21:00.046Z,33.20
2019-01-21T04:23:38.049Z,36.53
2019-01-21T04:26:18.405Z,39.53
2019-01-21T04:28:48.040Z,33.80
2019-01-21T04:31:41.270Z,37.47
2019-01-21T04:34:11.135Z,43.33
2019-01-21T04:36:48.507Z,38.77
2019-01-21T04:39:25.291Z,40.03
2019-01-21T04:42:19.119Z,42.40
2019-01-21T04:45:10.027Z,43.57
2019-01-21T04:47:47.230Z,41.40
2019-01-21T04:50:30.918Z,40.20
2019-01-21T04:53:54.787Z,38.47
2019-01-21T04:56:29.532Z,35.00
2019-01-21T04:59:20.894Z,38.27
2019-01-21T05:02:19.509Z,32.67
2019-01-21T05:04:59.855Z,35.87
2019-01-21T05:07:35.544Z,33.07
2019-01-21T05:10:21.038Z,31.27
2019-01-21T05:12:58.418Z,31.90
2019-01-21T05:15:43.220Z,31.53
2019-01-21T05:18:28.135Z,29.93
2019-01-21T05:21:29.674Z,35.43
2019-01-21T05:24:05.955Z,32.40
2019-01-21T05:26:36.842Z,32.50
2019-01-21T05:29:26.546Z,30.90
2019-01-21T05:32:18.549Z,34.47
2019-01-21T05:35:07.819Z,35.87
2019-01-21T05:38:00.298Z,38.13
2019-01-21T05:40:51.215Z,32.97
2019-01-21T05:43:41.125Z,34.37
2019-01-21T05:46:20.775Z,34.27
2019-01-21T05:49:10.700Z,40.10
2019-01-21T05:52:05.681Z,37.07
2019-01-21T05:54:48.101Z,38.63
2019-01-21T05:57:46.272Z,33.53
2019-01-21T06:00:51.252Z,35.60
2019-01-21T06:03:41.535Z,31.23
2019-01-21T06:06:27.618Z,37.23
2019-01-21T06:09:15.306Z,40.90
2019-01-21T06:12:17.157Z,34.17
2019-01-21T06:15:01.933Z,38.30
2019-01-21T06:17:54.007Z,33.50
2019-01-21T06:20:39.927Z,41.23
2019-01-21T06:23:17.174Z,38.67
2019-01-21T06:25:57.965Z,35.63
2019-01-21T06:28:29.152Z,35.67
2019-01-21T06:31:17.281Z,37.27
2019-01-21T06:33:55.176Z,49.87
2019-01-21T06:36:41.081Z,56.73
2019-01-21T06:39:25.506Z,41.93
2019-01-21T06:41:57.029Z,35.40
2019-01-21T06:44:43.568Z,37.77
2019-01-21T06:47:34.096Z,36.17
2019-01-21T06:50:05.686Z,35.40
2019-01-21T06:52:52.384Z,34.90
2019-01-21T06:55:30.789Z,40.67
2019-01-21T06:58:22.981Z,32.93
2019-01-21T07:01:12.105Z,34.00
2019-01-21T07:03:45.041Z,42.47
2019-01-21T07:06:32.313Z,39.23
2019-01-21T07:09:16.906Z,39.80
2019-01-21T07:11:46.732Z,35.53
2019-01-21T07:14:31.491Z,40.13
2019-01-21T07:17:01.048Z,39.37
2019-01-21T07:19:31.032Z,38.23
2019-01-21T07:22:20.006Z,38.70
2019-01-21T07:25:12.040Z,39.80
2019-01-21T07:28:06.969Z,38.63
2019-01-21T07:30:50.128Z,38.23
2019-01-21T07:33:21.573Z,44.47
2019-01-21T07:35:56.489Z,40.17
2019-01-21T07:38:48.393Z,40.40
2019-01-21T07:41:20.945Z,42.80
2019-01-21T07:44:00.761Z,44.05
2019-01-21T07:46:45.304Z,38.40
2019-01-21T07:49:23.420Z,38.10
2019-01-21T07:52:02.396Z,37.30
2019-01-21T07:54:50.104Z,34.27
2019-01-21T07:57:51.264Z,39.40
2019-01-21T08:00:31.327Z,38.00
2019-01-21T08:03:05.390Z,40.23
2019-01-21T08:05:37.729Z,34.83
2019-01-21T08:08:15.732Z,36.73
2019-01-21T08:11:00.468Z,36.40
2019-01-21T08:13:40.751Z,51.00
2019-01-21T08:16:44.833Z,45.03
2019-01-21T08:19:33.463Z,39.80
2019-01-21T08:22:14.868Z,42.77
2019-01-21T08:25:09.418Z,39.60
2019-01-21T08:27:54.137Z,41.83
2019-01-21T08:30:27.527Z,35.60
2019-01-21T08:33:12.370Z,39.03
2019-01-21T08:35:57.171Z,41.00
2019-01-21T08:38:42.053Z,38.00
2019-01-21T08:41:12.814Z,35.70
2019-01-21T08:44:04.753Z,37.67
2019-01-21T08:46:50.365Z,39.87
2019-01-21T08:49:36.162Z,37.40
2019-01-21T08:52:31.449Z,38.13
2019-01-21T08:55:35.624Z,35.03
2019-01-21T08:58:21.013Z,43.97
2019-01-21T09:01:01.593Z,40.53
2019-01-21T09:03:33.176Z,36.47
2019-01-21T09:06:25.344Z,35.30
2019-01-21T09:09:10.269Z,32.50
2019-01-21T09:12:08.462Z,32.97
2019-01-21T09:14:56.336Z,30.23
2019-01-21T09:17:38.725Z,31.17
2019-01-21T09:20:27.411Z,41.57
2019-01-21T09:23:01.420Z,31.37
2019-01-21T09:26:05.754Z,28.33
2019-01-21T09:28:50.588Z,31.47
2019-01-21T09:31:45.883Z,27.83
2019-01-21T09:34:30.719Z,45.67
2019-01-21T09:37:16.770Z,40.23
2019-01-21T09:39:57.278Z,41.50
2019-01-21T09:42:45.922Z,40.20
2019-01-21T09:45:34.684Z,42.00
2019-01-21T09:48:00.632Z,41.23
2019-01-21T09:50:27.117Z,42.27
2019-01-21T09:52:54.612Z,45.10
2019-01-21T09:55:22.028Z,50.03
2019-01-21T09:57:50.164Z,38.63
2019-01-21T10:00:17.460Z,39.13
2019-01-21T10:02:47.068Z,40.73
2019-01-21T10:05:14.013Z,46.50
2019-01-21T10:07:45.871Z,44.97
2019-01-21T10:10:35.633Z,39.77
2019-01-21T10:13:20.397Z,38.73
2019-01-21T10:15:50.082Z,37.20
2019-01-21T10:18:30.157Z,36.27
2019-01-21T10:21:24.918Z,39.03
2019-01-21T10:24:03.573Z,36.00
2019-01-21T10:26:55.716Z,39.23
2019-01-21T10:29:26.204Z,36.63
2019-01-21T10:32:15.072Z,35.03
2019-01-21T10:35:13.216Z,38.83
2019-01-21T10:38:13.257Z,38.87
2019-01-21T10:40:44.916Z,36.93
2019-01-21T10:43:30.693Z,44.40
2019-01-21T10:46:00.089Z,36.20
2019-01-21T10:48:42.020Z,37.37
2019-01-21T10:51:12.999Z,39.17
2019-01-21T10:54:17.208Z,40.47
2019-01-21T10:56:50.946Z,34.47
2019-01-21T10:59:24.432Z,34.43
2019-01-21T11:01:58.170Z,33.67
2019-01-21T11:04:44.062Z,33.47
2019-01-21T11:07:36.128Z,30.57
2019-01-21T11:10:06.132Z,29.53
2019-01-21T11:12:39.562Z,29.00
2019-01-21T11:15:08.922Z,33.37
2019-01-21T11:17:48.034Z,28.02
2019-01-21T11:20:32.530Z,30.00
2019-01-21T11:23:18.400Z,32.00
2019-01-21T11:26:03.632Z,28.50
2019-01-21T11:28:55.826Z,29.30
2019-01-21T11:31:37.677Z,23.20
2019-01-21T11:34:23.565Z,25.63
2019-01-21T11:37:06.417Z,22.57
2019-01-21T11:39:50.913Z,24.07
2019-01-21T11:42:23.153Z,23.77
2019-01-21T11:45:11.724Z,24.00
2019-01-21T11:47:57.570Z,19.47
2019-01-21T11:50:42.596Z,20.10
2019-01-21T11:53:12.984Z,23.00
2019-01-21T11:56:14.188Z,22.57
2019-01-21T11:58:45.330Z,25.17
2019-01-21T12:01:40.348Z,23.73
2019-01-21T12:04:10.759Z,23.70
2019-01-21T12:06:43.776Z,22.03
2019-01-21T12:09:44.695Z,23.30
2019-01-21T12:12:35.372Z,23.50
2019-01-21T12:15:33.276Z,23.47
2019-01-21T12:18:15.653Z,18.03
2019-01-21T12:21:05.509Z,21.97
2019-01-21T12:23:35.457Z,20.27
2019-01-21T12:26:06.841Z,18.53
2019-01-21T12:28:42.140Z,20.87
2019-01-21T12:31:12.782Z,21.73
2019-01-21T12:33:57.703Z,23.87
2019-01-21T12:36:27.113Z,22.87
2019-01-21T12:39:18.221Z,21.23
2019-01-21T12:42:04.180Z,19.43
2019-01-21T12:44:38.176Z,19.33
2019-01-21T12:47:13.840Z,20.70
2019-01-21T12:50:03.518Z,21.47
2019-01-21T12:52:39.083Z,24.27
2019-01-21T12:55:16.884Z,21.63
2019-01-21T12:58:08.929Z,18.93
2019-01-21T13:00:56.652Z,21.03
2019-01-21T13:03:42.562Z,19.57
2019-01-21T13:06:18.731Z,21.97
2019-01-21T13:08:48.141Z,21.30
2019-01-21T13:11:30.212Z,21.10
2019-01-21T13:14:15.009Z,21.67
2019-01-21T13:17:10.253Z,20.50
2019-01-21T13:20:02.148Z,21.27
2019-01-21T13:22:35.381Z,37.87
2019-01-21T13:25:21.286Z,21.03
2019-01-21T13:28:06.269Z,21.93
2019-01-21T13:30:48.245Z,19.47
2019-01-21T13:33:24.800Z,20.63
2019-01-21T13:35:58.147Z,23.43
2019-01-21T13:38:44.030Z,21.63
2019-01-21T13:41:18.963Z,20.13
2019-01-21T13:43:50.871Z,21.50
2019-01-21T13:46:33.129Z,19.30
2019-01-21T13:49:19.181Z,20.90
2019-01-21T13:52:06.388Z,20.63
2019-01-21T13:54:50.209Z,22.27
2019-01-21T13:57:34.842Z,22.27
2019-01-21T14:00:20.250Z,24.00
2019-01-21T14:03:05.236Z,22.60
2019-01-21T14:05:50.156Z,21.63
2019-01-21T14:08:28.518Z,26.37
2019-01-21T14:11:13.683Z,22.40
2019-01-21T14:13:51.967Z,21.93
2019-01-21T14:16:40.589Z,23.17
2019-01-21T14:19:29.672Z,24.10
2019-01-21T14:22:24.624Z,25.90
2019-01-21T14:25:19.729Z,20.10
2019-01-21T14:28:14.437Z,24.40
2019-01-21T14:30:50.363Z,24.90
2019-01-21T14:33:26.640Z,19.43
2019-01-21T14:36:11.553Z,19.47
2019-01-21T14:38:44.530Z,18.93
2019-01-21T14:41:17.191Z,19.80
2019-01-21T14:44:05.112Z,20.87
2019-01-21T14:46:53.766Z,23.10
2019-01-21T14:49:43.015Z,24.03
2019-01-21T14:52:34.872Z,18.90
2019-01-21T14:55:24.187Z,21.10
2019-01-21T14:58:08.947Z,20.17
2019-01-21T15:01:04.162Z,21.37
2019-01-21T15:03:46.670Z,22.43
2019-01-21T15:06:26.686Z,20.40
2019-01-21T15:08:58.972Z,23.13
2019-01-21T15:11:40.833Z,22.23
2019-01-21T15:14:36.224Z,21.07
2019-01-21T15:17:25.227Z,26.03
2019-01-21T15:19:59.809Z,21.77
2019-01-21T15:22:39.465Z,22.50
2019-01-21T15:25:24.316Z,21.73
2019-01-21T15:28:10.387Z,27.37
2019-01-21T15:30:56.287Z,23.13
2019-01-21T15:33:26.617Z,23.33
2019-01-21T15:36:06.159Z,22.13
2019-01-21T15:38:52.286Z,24.63
2019-01-21T15:41:41.310Z,23.97
2019-01-21T15:44:33.153Z,27.10
2019-01-21T15:47:19.007Z,25.17
2019-01-21T15:49:55.691Z,26.10
2019-01-21T15:53:07.250Z,25.63
2019-01-21T16:58:57.145Z,36.37
2019-01-21T17:42:59.653Z,29.77
2019-01-21T18:14:11.381Z,33.13
2019-01-21T18:16:41.721Z,32.70
2019-01-21T18:19:14.663Z,33.73
2019-01-21T18:21:41.355Z,30.97
2019-01-21T18:24:08.263Z,33.47
2019-01-21T18:26:34.669Z,30.80
2019-01-21T18:29:00.947Z,31.40
2019-01-21T18:31:27.422Z,37.67
2019-01-21T18:33:53.971Z,32.50
2019-01-21T18:36:23.446Z,31.50
2019-01-21T18:38:54.431Z,30.27
2019-01-21T18:41:21.247Z,31.87
2019-01-21T18:43:50.630Z,29.50
2019-01-21T18:46:17.478Z,31.00
2019-01-21T18:48:57.242Z,32.70
2019-01-21T18:51:15.325Z,32.10
2019-01-21T18:53:41.901Z,28.57
2019-01-21T18:56:08.530Z,28.60
2019-01-21T18:58:35.055Z,30.93
2019-01-21T19:01:01.698Z,32.17
2019-01-21T19:03:38.492Z,41.20
2019-01-21T19:06:08.096Z,34.43
2019-01-21T19:08:36.063Z,33.20
2019-01-21T19:11:04.706Z,32.93
2019-01-21T19:13:31.163Z,33.50
2019-01-21T19:15:57.631Z,34.30
2019-01-21T19:18:24.311Z,38.50
2019-01-21T19:20:53.132Z,34.20
2019-01-21T19:23:21.135Z,37.33
2019-01-21T19:25:47.666Z,41.10
2019-01-21T19:28:15.769Z,37.23
2019-01-21T19:30:42.378Z,38.53
2019-01-21T19:33:09.139Z,35.23
2019-01-21T19:35:36.253Z,51.70
2019-01-21T19:38:10.583Z,51.20
2019-01-21T19:40:37.314Z,42.10
2019-01-21T19:43:04.098Z,33.47
2019-01-21T19:45:30.861Z,34.57
2019-01-21T19:47:57.362Z,35.93
2019-01-21T19:50:25.097Z,32.97
2019-01-21T19:52:51.461Z,36.13
2019-01-21T19:55:23.909Z,38.87
2019-01-21T19:57:50.341Z,38.13
2019-01-21T20:00:16.866Z,35.83
2019-01-21T20:02:44.492Z,39.27
2019-01-21T20:05:11.201Z,40.23
2019-01-21T20:07:37.573Z,39.20
2019-01-21T20:10:04.868Z,39.03
2019-01-21T20:12:31.327Z,39.67
2019-01-21T20:14:57.736Z,38.47
2019-01-21T20:17:24.139Z,36.73
2019-01-21T20:19:50.694Z,36.80
2019-01-21T20:22:17.005Z,36.83
2019-01-21T20:24:43.365Z,35.20
2019-01-21T20:27:11.101Z,38.93
2019-01-21T20:29:37.522Z,34.90
2019-01-21T20:32:04.021Z,39.47
2019-01-21T20:34:30.445Z,38.47
2019-01-21T20:36:59.455Z,33.27
2019-01-21T20:39:25.752Z,34.50
2019-01-21T20:41:52.351Z,39.87
2019-01-21T20:44:19.104Z,37.17
2019-01-21T20:46:45.544Z,43.47
2019-01-21T20:49:11.990Z,39.53
2019-01-21T20:51:40.281Z,37.73
2019-01-21T20:54:06.847Z,38.93
2019-01-21T20:56:33.108Z,40.03
2019-01-21T20:59:03.883Z,40.43
2019-01-21T21:01:30.366Z,43.33
2019-01-21T21:03:56.782Z,44.60
2019-01-21T21:06:23.153Z,45.43
2019-01-21T21:08:49.402Z,41.30
2019-01-21T21:11:15.740Z,43.43
2019-01-21T21:13:42.037Z,42.80
2019-01-21T21:16:08.349Z,48.57
2019-01-21T21:18:34.818Z,46.77
2019-01-21T21:21:01.378Z,45.23
2019-01-21T21:23:27.678Z,51.47
2019-01-21T21:25:54.121Z,46.13
2019-01-21T21:28:20.419Z,43.10
2019-01-21T21:30:47.141Z,44.33
2019-01-21T21:33:13.658Z,40.70
2019-01-21T21:35:39.984Z,44.60
2019-01-21T21:38:10.976Z,41.83
2019-01-21T21:40:37.581Z,40.57
2019-01-21T21:43:04.223Z,38.73
2019-01-21T21:45:30.670Z,35.10
2019-01-21T21:48:01.162Z,40.07
2019-01-21T21:50:26.593Z,42.57
2019-01-21T21:52:52.954Z,38.37
2019-01-21T21:55:19.400Z,38.33
2019-01-21T21:57:45.777Z,40.80
2019-01-21T22:00:36.573Z,39.33
2019-01-21T22:03:05.680Z,38.67
2019-01-21T22:05:32.016Z,37.20
2019-01-21T22:07:58.486Z,36.63
2019-01-21T22:10:26.158Z,37.53
2019-01-21T22:12:52.720Z,38.60
2019-01-21T22:15:19.829Z,36.67
2019-01-21T22:17:46.217Z,40.20
2019-01-21T22:20:13.829Z,37.87
2019-01-21T22:22:40.180Z,37.17
2019-01-21T22:25:06.713Z,34.77
2019-01-21T22:27:33.525Z,37.67
2019-01-21T22:29:59.884Z,39.30
2019-01-21T22:32:29.498Z,36.30
2019-01-21T22:34:55.861Z,37.90
2019-01-21T22:37:22.259Z,35.50
2019-01-21T22:39:48.801Z,35.40
2019-01-21T22:42:15.536Z,33.03
2019-01-21T22:44:41.784Z,35.40
2019-01-21T22:47:08.068Z,36.47
2019-01-21T22:49:34.494Z,36.87
2019-01-21T22:52:00.962Z,35.57
2019-01-21T22:54:27.221Z,33.60
2019-01-21T22:56:53.581Z,34.80
2019-01-21T22:59:19.940Z,35.70
2019-01-21T23:01:48.352Z,36.93
2019-01-21T23:04:14.705Z,31.37
2019-01-21T23:06:41.182Z,33.70
2019-01-21T23:09:07.937Z,33.93
2019-01-21T23:11:34.523Z,34.53
2019-01-21T23:14:01.381Z,34.53
2019-01-21T23:16:27.991Z,33.43
2019-01-21T23:18:54.492Z,36.13
2019-01-21T23:21:20.998Z,35.60
2019-01-21T23:23:47.228Z,31.70
2019-01-21T23:26:13.781Z,35.10
2019-01-21T23:28:40.107Z,34.13
2019-01-21T23:31:06.702Z,35.10
2019-01-21T23:33:33.227Z,37.17
2019-01-21T23:35:59.610Z,35.53
2019-01-21T23:38:26.098Z,34.33
2019-01-21T23:40:53.585Z,30.97
2019-01-21T23:43:20.169Z,35.53
2019-01-21T23:45:46.957Z,34.37
2019-01-21T23:48:13.398Z,35.77
2019-01-21T23:50:39.804Z,39.30
2019-01-21T23:53:06.274Z,38.03
2019-01-21T23:55:32.681Z,36.53
2019-01-21T23:57:59.193Z,34.50
